sensor_id;sensor_type;location;lat;lon;timestamp;P1;durP1;ratioP1;P2;durP2;ratioP2
359;SDS011;168;48.872;9.226;2023-06-22T00:01:17;13.83;;;12.43;;
359;SDS011;168;48.872;9.226;2023-06-22T00:03:46;11.30;;;10.37;;
359;SDS011;168;48.872;9.226;2023-06-22T00:06:13;11.50;;;10.40;;
359;SDS011;168;48.872;9.226;2023-06-22T00:08:41;11.80;;;10.70;;
359;SDS011;168;48.872;9.226;2023-06-22T00:11:08;12.50;;;11.40;;
359;SDS011;168;48.872;9.226;2023-06-22T00:13:36;10.73;;;9.83;;
359;SDS011;168;48.872;9.226;2023-06-22T00:16:04;11.50;;;10.50;;
359;SDS011;168;48.872;9.226;2023-06-22T00:18:31;11.53;;;10.37;;
359;SDS011;168;48.872;9.226;2023-06-22T00:21:00;12.40;;;11.20;;
359;SDS011;168;48.872;9.226;2023-06-22T00:23:27;12.83;;;11.60;;
359;SDS011;168;48.872;9.226;2023-06-22T00:25:59;10.63;;;9.73;;
359;SDS011;168;48.872;9.226;2023-06-22T00:28:27;11.00;;;10.00;;
359;SDS011;168;48.872;9.226;2023-06-22T00:30:54;13.60;;;12.37;;
359;SDS011;168;48.872;9.226;2023-06-22T00:33:22;11.40;;;10.40;;
359;SDS011;168;48.872;9.226;2023-06-22T00:35:49;11.57;;;10.47;;
359;SDS011;168;48.872;9.226;2023-06-22T00:38:19;11.47;;;10.37;;
359;SDS011;168;48.872;9.226;2023-06-22T00:40:47;11.17;;;10.20;;
359;SDS011;168;48.872;9.226;2023-06-22T00:43:15;11.43;;;9.70;;
359;SDS011;168;48.872;9.226;2023-06-22T00:45:42;12.23;;;10.90;;
359;SDS011;168;48.872;9.226;2023-06-22T00:48:09;11.83;;;10.70;;
359;SDS011;168;48.872;9.226;2023-06-22T00:50:38;11.40;;;10.40;;
359;SDS011;168;48.872;9.226;2023-06-22T00:53:07;13.13;;;11.40;;
359;SDS011;168;48.872;9.226;2023-06-22T00:55:36;12.57;;;11.27;;
359;SDS011;168;48.872;9.226;2023-06-22T00:58:05;12.20;;;11.13;;
359;SDS011;168;48.872;9.226;2023-06-22T01:00:36;11.20;;;10.10;;
359;SDS011;168;48.872;9.226;2023-06-22T01:03:03;13.03;;;11.63;;
359;SDS011;168;48.872;9.226;2023-06-22T01:05:34;12.10;;;10.90;;
359;SDS011;168;48.872;9.226;2023-06-22T01:08:07;13.23;;;11.93;;
359;SDS011;168;48.872;9.226;2023-06-22T01:10:44;13.17;;;11.90;;
359;SDS011;168;48.872;9.226;2023-06-22T01:13:18;13.20;;;11.90;;
359;SDS011;168;48.872;9.226;2023-06-22T01:15:53;13.23;;;11.83;;
359;SDS011;168;48.872;9.226;2023-06-22T01:18:26;13.00;;;11.80;;
359;SDS011;168;48.872;9.226;2023-06-22T01:20:56;12.00;;;10.97;;
359;SDS011;168;48.872;9.226;2023-06-22T01:23:27;12.77;;;11.60;;
359;SDS011;168;48.872;9.226;2023-06-22T01:26:06;12.50;;;11.30;;
359;SDS011;168;48.872;9.226;2023-06-22T01:28:45;12.87;;;11.67;;
359;SDS011;168;48.872;9.226;2023-06-22T01:31:14;13.13;;;11.70;;
359;SDS011;168;48.872;9.226;2023-06-22T01:33:43;12.50;;;11.23;;
359;SDS011;168;48.872;9.226;2023-06-22T01:36:15;11.77;;;10.57;;
359;SDS011;168;48.872;9.226;2023-06-22T01:38:44;13.47;;;12.17;;
359;SDS011;168;48.872;9.226;2023-06-22T01:41:13;12.80;;;11.60;;
359;SDS011;168;48.872;9.226;2023-06-22T01:43:41;13.40;;;12.20;;
359;SDS011;168;48.872;9.226;2023-06-22T01:46:11;12.20;;;10.90;;
359;SDS011;168;48.872;9.226;2023-06-22T01:48:40;13.50;;;12.20;;
359;SDS011;168;48.872;9.226;2023-06-22T01:51:07;12.60;;;11.40;;
359;SDS011;168;48.872;9.226;2023-06-22T01:53:35;13.37;;;11.97;;
359;SDS011;168;48.872;9.226;2023-06-22T01:56:02;13.40;;;11.30;;
359;SDS011;168;48.872;9.226;2023-06-22T01:58:31;14.50;;;11.83;;
359;SDS011;168;48.872;9.226;2023-06-22T02:01:00;11.97;;;10.87;;
359;SDS011;168;48.872;9.226;2023-06-22T02:03:38;12.80;;;11.60;;
359;SDS011;168;48.872;9.226;2023-06-22T02:06:10;14.33;;;12.80;;
359;SDS011;168;48.872;9.226;2023-06-22T02:08:48;13.23;;;12.03;;
359;SDS011;168;48.872;9.226;2023-06-22T02:11:20;12.33;;;11.13;;
359;SDS011;168;48.872;9.226;2023-06-22T02:13:49;12.53;;;11.43;;
359;SDS011;168;48.872;9.226;2023-06-22T02:16:17;13.90;;;11.47;;
359;SDS011;168;48.872;9.226;2023-06-22T02:18:47;13.93;;;11.97;;
359;SDS011;168;48.872;9.226;2023-06-22T02:21:16;13.07;;;11.67;;
359;SDS011;168;48.872;9.226;2023-06-22T02:23:44;13.60;;;12.27;;
359;SDS011;168;48.872;9.226;2023-06-22T02:26:11;12.50;;;11.40;;
359;SDS011;168;48.872;9.226;2023-06-22T02:28:39;13.00;;;11.90;;
359;SDS011;168;48.872;9.226;2023-06-22T02:31:06;13.87;;;12.50;;
359;SDS011;168;48.872;9.226;2023-06-22T02:33:33;13.30;;;12.00;;
359;SDS011;168;48.872;9.226;2023-06-22T02:36:02;12.90;;;11.60;;
359;SDS011;168;48.872;9.226;2023-06-22T02:38:30;12.57;;;11.37;;
359;SDS011;168;48.872;9.226;2023-06-22T02:41:00;13.87;;;12.53;;
359;SDS011;168;48.872;9.226;2023-06-22T02:43:27;16.40;;;12.57;;
359;SDS011;168;48.872;9.226;2023-06-22T02:45:55;13.10;;;11.90;;
359;SDS011;168;48.872;9.226;2023-06-22T02:48:22;13.70;;;12.30;;
359;SDS011;168;48.872;9.226;2023-06-22T02:50:50;16.30;;;12.50;;
359;SDS011;168;48.872;9.226;2023-06-22T02:53:19;14.43;;;12.37;;
359;SDS011;168;48.872;9.226;2023-06-22T02:55:46;12.60;;;11.50;;
359;SDS011;168;48.872;9.226;2023-06-22T02:58:13;12.37;;;11.23;;
359;SDS011;168;48.872;9.226;2023-06-22T03:00:42;15.17;;;12.57;;
359;SDS011;168;48.872;9.226;2023-06-22T03:03:09;14.70;;;12.63;;
359;SDS011;168;48.872;9.226;2023-06-22T03:05:36;13.07;;;11.80;;
359;SDS011;168;48.872;9.226;2023-06-22T03:08:05;13.43;;;12.20;;
359;SDS011;168;48.872;9.226;2023-06-22T03:10:34;14.90;;;13.40;;
359;SDS011;168;48.872;9.226;2023-06-22T03:13:01;13.73;;;12.20;;
359;SDS011;168;48.872;9.226;2023-06-22T03:15:29;14.60;;;13.03;;
359;SDS011;168;48.872;9.226;2023-06-22T03:17:57;12.97;;;11.67;;
359;SDS011;168;48.872;9.226;2023-06-22T03:20:24;13.93;;;12.63;;
359;SDS011;168;48.872;9.226;2023-06-22T03:22:59;13.17;;;11.87;;
359;SDS011;168;48.872;9.226;2023-06-22T03:25:27;13.83;;;12.50;;
359;SDS011;168;48.872;9.226;2023-06-22T03:27:57;13.73;;;12.40;;
359;SDS011;168;48.872;9.226;2023-06-22T03:30:24;14.33;;;12.80;;
359;SDS011;168;48.872;9.226;2023-06-22T03:32:51;15.13;;;13.60;;
359;SDS011;168;48.872;9.226;2023-06-22T03:35:20;16.87;;;12.50;;
359;SDS011;168;48.872;9.226;2023-06-22T03:37:50;13.90;;;12.67;;
359;SDS011;168;48.872;9.226;2023-06-22T03:40:18;12.93;;;11.63;;
359;SDS011;168;48.872;9.226;2023-06-22T03:42:45;13.43;;;12.03;;
359;SDS011;168;48.872;9.226;2023-06-22T03:45:14;14.60;;;13.13;;
359;SDS011;168;48.872;9.226;2023-06-22T03:47:42;13.40;;;12.10;;
359;SDS011;168;48.872;9.226;2023-06-22T03:50:09;13.70;;;12.30;;
359;SDS011;168;48.872;9.226;2023-06-22T03:52:37;13.93;;;11.87;;
359;SDS011;168;48.872;9.226;2023-06-22T03:55:05;12.60;;;11.30;;
359;SDS011;168;48.872;9.226;2023-06-22T03:57:33;13.93;;;12.60;;
359;SDS011;168;48.872;9.226;2023-06-22T04:00:01;13.60;;;12.30;;
359;SDS011;168;48.872;9.226;2023-06-22T04:02:32;15.50;;;13.80;;
359;SDS011;168;48.872;9.226;2023-06-22T04:04:59;13.27;;;12.07;;
359;SDS011;168;48.872;9.226;2023-06-22T04:07:27;13.20;;;11.97;;
359;SDS011;168;48.872;9.226;2023-06-22T04:09:55;14.43;;;12.17;;
359;SDS011;168;48.872;9.226;2023-06-22T04:12:22;13.67;;;11.63;;
359;SDS011;168;48.872;9.226;2023-06-22T04:14:50;13.43;;;11.90;;
359;SDS011;168;48.872;9.226;2023-06-22T04:20:33;12.60;;;11.30;;
359;SDS011;168;48.872;9.226;2023-06-22T04:23:00;12.63;;;11.43;;
359;SDS011;168;48.872;9.226;2023-06-22T04:25:27;13.40;;;12.00;;
359;SDS011;168;48.872;9.226;2023-06-22T04:27:55;13.80;;;12.50;;
359;SDS011;168;48.872;9.226;2023-06-22T04:30:23;14.20;;;12.77;;
359;SDS011;168;48.872;9.226;2023-06-22T04:32:52;12.43;;;11.33;;
359;SDS011;168;48.872;9.226;2023-06-22T04:35:23;12.23;;;11.10;;
359;SDS011;168;48.872;9.226;2023-06-22T04:37:50;14.60;;;13.20;;
359;SDS011;168;48.872;9.226;2023-06-22T04:40:21;12.70;;;11.60;;
359;SDS011;168;48.872;9.226;2023-06-22T04:42:50;12.53;;;11.33;;
359;SDS011;168;48.872;9.226;2023-06-22T04:45:19;13.30;;;11.90;;
359;SDS011;168;48.872;9.226;2023-06-22T04:47:47;13.17;;;11.73;;
359;SDS011;168;48.872;9.226;2023-06-22T04:50:16;12.00;;;10.90;;
359;SDS011;168;48.872;9.226;2023-06-22T04:52:50;13.70;;;11.23;;
359;SDS011;168;48.872;9.226;2023-06-22T04:55:26;12.90;;;11.70;;
359;SDS011;168;48.872;9.226;2023-06-22T04:57:54;15.13;;;12.07;;
359;SDS011;168;48.872;9.226;2023-06-22T05:00:22;13.17;;;11.70;;
359;SDS011;168;48.872;9.226;2023-06-22T05:02:49;11.33;;;10.30;;
359;SDS011;168;48.872;9.226;2023-06-22T05:05:18;14.00;;;11.90;;
359;SDS011;168;48.872;9.226;2023-06-22T05:07:46;13.30;;;11.97;;
359;SDS011;168;48.872;9.226;2023-06-22T05:10:16;13.63;;;12.23;;
359;SDS011;168;48.872;9.226;2023-06-22T05:12:43;14.13;;;12.83;;
359;SDS011;168;48.872;9.226;2023-06-22T05:15:13;12.43;;;11.33;;
359;SDS011;168;48.872;9.226;2023-06-22T05:17:41;15.13;;;12.33;;
359;SDS011;168;48.872;9.226;2023-06-22T05:20:11;13.27;;;12.07;;
359;SDS011;168;48.872;9.226;2023-06-22T05:23:03;12.60;;;11.40;;
359;SDS011;168;48.872;9.226;2023-06-22T05:25:32;13.77;;;12.37;;
359;SDS011;168;48.872;9.226;2023-06-22T05:28:15;15.10;;;12.90;;
359;SDS011;168;48.872;9.226;2023-06-22T05:31:00;14.53;;;13.17;;
359;SDS011;168;48.872;9.226;2023-06-22T05:33:30;13.47;;;12.00;;
359;SDS011;168;48.872;9.226;2023-06-22T05:36:03;12.60;;;11.47;;
359;SDS011;168;48.872;9.226;2023-06-22T05:38:33;12.80;;;11.60;;
359;SDS011;168;48.872;9.226;2023-06-22T05:41:01;13.33;;;12.00;;
359;SDS011;168;48.872;9.226;2023-06-22T05:43:29;13.43;;;12.13;;
359;SDS011;168;48.872;9.226;2023-06-22T05:45:57;14.60;;;12.13;;
359;SDS011;168;48.872;9.226;2023-06-22T05:48:30;12.97;;;11.77;;
359;SDS011;168;48.872;9.226;2023-06-22T05:51:00;12.27;;;11.07;;
359;SDS011;168;48.872;9.226;2023-06-22T05:53:28;12.77;;;11.57;;
359;SDS011;168;48.872;9.226;2023-06-22T05:55:57;13.07;;;11.77;;
359;SDS011;168;48.872;9.226;2023-06-22T05:58:24;14.23;;;12.80;;
359;SDS011;168;48.872;9.226;2023-06-22T06:00:59;12.63;;;11.53;;
359;SDS011;168;48.872;9.226;2023-06-22T06:03:30;14.53;;;12.43;;
359;SDS011;168;48.872;9.226;2023-06-22T06:05:57;11.80;;;10.60;;
359;SDS011;168;48.872;9.226;2023-06-22T06:08:28;13.50;;;12.20;;
359;SDS011;168;48.872;9.226;2023-06-22T06:10:58;12.00;;;10.83;;
359;SDS011;168;48.872;9.226;2023-06-22T06:16:11;11.20;;;10.20;;
359;SDS011;168;48.872;9.226;2023-06-22T06:18:40;12.00;;;10.70;;
359;SDS011;168;48.872;9.226;2023-06-22T06:21:15;11.13;;;10.10;;
359;SDS011;168;48.872;9.226;2023-06-22T06:23:49;11.20;;;10.10;;
359;SDS011;168;48.872;9.226;2023-06-22T06:26:18;11.57;;;10.43;;
359;SDS011;168;48.872;9.226;2023-06-22T06:28:53;11.20;;;10.10;;
359;SDS011;168;48.872;9.226;2023-06-22T06:31:21;10.57;;;9.67;;
359;SDS011;168;48.872;9.226;2023-06-22T06:33:49;11.60;;;10.60;;
359;SDS011;168;48.872;9.226;2023-06-22T06:36:16;12.23;;;11.17;;
359;SDS011;168;48.872;9.226;2023-06-22T06:38:44;13.00;;;11.83;;
359;SDS011;168;48.872;9.226;2023-06-22T06:41:12;12.40;;;11.30;;
359;SDS011;168;48.872;9.226;2023-06-22T06:43:42;13.50;;;10.63;;
359;SDS011;168;48.872;9.226;2023-06-22T06:46:09;11.10;;;10.10;;
359;SDS011;168;48.872;9.226;2023-06-22T06:48:37;10.00;;;8.83;;
359;SDS011;168;48.872;9.226;2023-06-22T06:51:05;10.90;;;9.90;;
359;SDS011;168;48.872;9.226;2023-06-22T06:53:35;8.90;;;8.07;;
359;SDS011;168;48.872;9.226;2023-06-22T06:56:03;10.43;;;8.93;;
359;SDS011;168;48.872;9.226;2023-06-22T06:58:32;9.73;;;8.80;;
359;SDS011;168;48.872;9.226;2023-06-22T07:01:01;12.53;;;9.67;;
359;SDS011;168;48.872;9.226;2023-06-22T07:03:28;9.90;;;9.00;;
359;SDS011;168;48.872;9.226;2023-06-22T07:05:57;10.97;;;9.87;;
359;SDS011;168;48.872;9.226;2023-06-22T07:08:25;8.43;;;7.60;;
359;SDS011;168;48.872;9.226;2023-06-22T07:10:55;10.23;;;9.07;;
359;SDS011;168;48.872;9.226;2023-06-22T07:13:27;9.30;;;8.13;;
359;SDS011;168;48.872;9.226;2023-06-22T07:15:55;8.50;;;7.43;;
359;SDS011;168;48.872;9.226;2023-06-22T07:18:24;7.60;;;6.90;;
359;SDS011;168;48.872;9.226;2023-06-22T07:20:52;8.33;;;7.40;;
359;SDS011;168;48.872;9.226;2023-06-22T07:23:19;8.53;;;7.73;;
359;SDS011;168;48.872;9.226;2023-06-22T07:25:47;8.93;;;8.13;;
359;SDS011;168;48.872;9.226;2023-06-22T07:28:21;8.73;;;7.57;;
359;SDS011;168;48.872;9.226;2023-06-22T07:30:48;8.53;;;7.47;;
359;SDS011;168;48.872;9.226;2023-06-22T07:33:16;9.53;;;7.80;;
359;SDS011;168;48.872;9.226;2023-06-22T07:35:45;7.43;;;6.77;;
359;SDS011;168;48.872;9.226;2023-06-22T07:38:14;8.83;;;8.03;;
359;SDS011;168;48.872;9.226;2023-06-22T07:40:41;9.43;;;8.10;;
359;SDS011;168;48.872;9.226;2023-06-22T07:43:09;9.17;;;8.33;;
359;SDS011;168;48.872;9.226;2023-06-22T07:45:37;9.23;;;8.00;;
359;SDS011;168;48.872;9.226;2023-06-22T07:48:06;8.50;;;7.50;;
359;SDS011;168;48.872;9.226;2023-06-22T07:50:34;8.87;;;7.87;;
359;SDS011;168;48.872;9.226;2023-06-22T07:53:04;7.80;;;7.07;;
359;SDS011;168;48.872;9.226;2023-06-22T07:55:31;8.97;;;8.17;;
359;SDS011;168;48.872;9.226;2023-06-22T07:57:59;8.47;;;7.77;;
359;SDS011;168;48.872;9.226;2023-06-22T08:00:27;7.53;;;6.83;;
359;SDS011;168;48.872;9.226;2023-06-22T08:02:54;9.63;;;7.60;;
359;SDS011;168;48.872;9.226;2023-06-22T08:05:26;9.20;;;7.17;;
359;SDS011;168;48.872;9.226;2023-06-22T08:07:56;7.40;;;6.80;;
359;SDS011;168;48.872;9.226;2023-06-22T08:10:25;10.20;;;7.50;;
359;SDS011;168;48.872;9.226;2023-06-22T08:12:52;8.37;;;7.60;;
359;SDS011;168;48.872;9.226;2023-06-22T08:15:21;7.90;;;7.17;;
359;SDS011;168;48.872;9.226;2023-06-22T08:17:48;12.40;;;7.90;;
359;SDS011;168;48.872;9.226;2023-06-22T08:20:17;8.23;;;7.27;;
359;SDS011;168;48.872;9.226;2023-06-22T08:22:48;11.77;;;9.97;;
359;SDS011;168;48.872;9.226;2023-06-22T08:25:15;8.33;;;7.63;;
359;SDS011;168;48.872;9.226;2023-06-22T08:27:45;8.93;;;8.03;;
359;SDS011;168;48.872;9.226;2023-06-22T08:30:14;10.03;;;8.00;;
359;SDS011;168;48.872;9.226;2023-06-22T08:32:41;7.70;;;7.03;;
359;SDS011;168;48.872;9.226;2023-06-22T08:35:09;8.70;;;7.80;;
359;SDS011;168;48.872;9.226;2023-06-22T08:37:41;6.60;;;6.00;;
359;SDS011;168;48.872;9.226;2023-06-22T08:40:09;8.80;;;6.57;;
359;SDS011;168;48.872;9.226;2023-06-22T08:42:37;8.23;;;7.10;;
359;SDS011;168;48.872;9.226;2023-06-22T08:45:09;8.80;;;7.43;;
359;SDS011;168;48.872;9.226;2023-06-22T08:47:37;7.07;;;6.20;;
359;SDS011;168;48.872;9.226;2023-06-22T08:50:14;7.20;;;6.57;;
359;SDS011;168;48.872;9.226;2023-06-22T08:52:41;6.80;;;6.10;;
359;SDS011;168;48.872;9.226;2023-06-22T08:55:09;7.23;;;5.63;;
359;SDS011;168;48.872;9.226;2023-06-22T08:57:37;7.10;;;6.30;;
359;SDS011;168;48.872;9.226;2023-06-22T09:00:05;8.80;;;6.80;;
359;SDS011;168;48.872;9.226;2023-06-22T09:02:44;9.00;;;5.83;;
359;SDS011;168;48.872;9.226;2023-06-22T09:05:17;7.30;;;6.60;;
359;SDS011;168;48.872;9.226;2023-06-22T09:07:48;6.93;;;6.23;;
359;SDS011;168;48.872;9.226;2023-06-22T09:10:15;7.30;;;6.20;;
359;SDS011;168;48.872;9.226;2023-06-22T09:12:43;9.03;;;6.27;;
359;SDS011;168;48.872;9.226;2023-06-22T09:15:10;8.53;;;6.90;;
359;SDS011;168;48.872;9.226;2023-06-22T09:17:40;7.37;;;6.67;;
359;SDS011;168;48.872;9.226;2023-06-22T09:20:09;9.33;;;7.20;;
359;SDS011;168;48.872;9.226;2023-06-22T09:22:37;7.30;;;6.60;;
359;SDS011;168;48.872;9.226;2023-06-22T09:25:05;7.70;;;6.90;;
359;SDS011;168;48.872;9.226;2023-06-22T09:27:34;7.93;;;6.20;;
359;SDS011;168;48.872;9.226;2023-06-22T09:30:02;8.97;;;7.50;;
359;SDS011;168;48.872;9.226;2023-06-22T09:32:30;7.60;;;6.90;;
359;SDS011;168;48.872;9.226;2023-06-22T09:34:58;9.83;;;7.43;;
359;SDS011;168;48.872;9.226;2023-06-22T09:37:27;10.63;;;7.43;;
359;SDS011;168;48.872;9.226;2023-06-22T09:39:55;7.80;;;6.90;;
359;SDS011;168;48.872;9.226;2023-06-22T09:42:23;8.70;;;6.10;;
359;SDS011;168;48.872;9.226;2023-06-22T09:44:50;8.70;;;6.70;;
359;SDS011;168;48.872;9.226;2023-06-22T09:47:20;7.03;;;6.37;;
359;SDS011;168;48.872;9.226;2023-06-22T09:49:48;7.70;;;6.73;;
359;SDS011;168;48.872;9.226;2023-06-22T09:52:24;7.27;;;6.47;;
359;SDS011;168;48.872;9.226;2023-06-22T09:55:03;9.00;;;6.80;;
359;SDS011;168;48.872;9.226;2023-06-22T09:57:31;10.10;;;6.70;;
359;SDS011;168;48.872;9.226;2023-06-22T09:59:59;9.27;;;6.50;;
359;SDS011;168;48.872;9.226;2023-06-22T10:02:26;7.27;;;6.47;;
359;SDS011;168;48.872;9.226;2023-06-22T10:04:55;8.73;;;6.23;;
359;SDS011;168;48.872;9.226;2023-06-22T10:07:22;9.27;;;7.20;;
359;SDS011;168;48.872;9.226;2023-06-22T10:09:51;11.43;;;7.30;;
359;SDS011;168;48.872;9.226;2023-06-22T10:12:18;8.60;;;6.93;;
359;SDS011;168;48.872;9.226;2023-06-22T10:14:46;8.60;;;6.70;;
359;SDS011;168;48.872;9.226;2023-06-22T10:17:15;7.13;;;6.30;;
359;SDS011;168;48.872;9.226;2023-06-22T10:19:43;6.87;;;6.13;;
359;SDS011;168;48.872;9.226;2023-06-22T10:22:14;9.53;;;6.17;;
359;SDS011;168;48.872;9.226;2023-06-22T10:24:41;7.37;;;6.40;;
359;SDS011;168;48.872;9.226;2023-06-22T10:27:13;8.07;;;6.30;;
359;SDS011;168;48.872;9.226;2023-06-22T10:29:41;7.43;;;6.57;;
359;SDS011;168;48.872;9.226;2023-06-22T10:32:09;6.77;;;6.10;;
359;SDS011;168;48.872;9.226;2023-06-22T10:34:36;7.23;;;6.23;;
359;SDS011;168;48.872;9.226;2023-06-22T10:37:04;7.73;;;6.93;;
359;SDS011;168;48.872;9.226;2023-06-22T10:39:32;7.50;;;6.23;;
359;SDS011;168;48.872;9.226;2023-06-22T10:41:59;8.77;;;6.33;;
359;SDS011;168;48.872;9.226;2023-06-22T10:44:28;8.40;;;7.50;;
359;SDS011;168;48.872;9.226;2023-06-22T10:46:55;9.17;;;8.27;;
359;SDS011;168;48.872;9.226;2023-06-22T10:49:22;10.83;;;6.57;;
359;SDS011;168;48.872;9.226;2023-06-22T10:51:49;6.50;;;5.80;;
359;SDS011;168;48.872;9.226;2023-06-22T10:54:17;6.80;;;6.10;;
359;SDS011;168;48.872;9.226;2023-06-22T10:56:46;11.90;;;9.50;;
359;SDS011;168;48.872;9.226;2023-06-22T10:59:13;10.50;;;8.90;;
359;SDS011;168;48.872;9.226;2023-06-22T11:01:42;9.57;;;6.90;;
359;SDS011;168;48.872;9.226;2023-06-22T11:04:10;10.87;;;6.90;;
359;SDS011;168;48.872;9.226;2023-06-22T11:06:37;8.30;;;5.90;;
359;SDS011;168;48.872;9.226;2023-06-22T11:09:04;8.13;;;6.30;;
359;SDS011;168;48.872;9.226;2023-06-22T11:11:32;7.30;;;5.87;;
359;SDS011;168;48.872;9.226;2023-06-22T11:13:59;8.27;;;6.37;;
359;SDS011;168;48.872;9.226;2023-06-22T11:16:27;10.40;;;6.03;;
359;SDS011;168;48.872;9.226;2023-06-22T11:18:56;8.53;;;6.03;;
359;SDS011;168;48.872;9.226;2023-06-22T11:21:24;6.77;;;5.37;;
359;SDS011;168;48.872;9.226;2023-06-22T11:23:54;8.30;;;7.10;;
359;SDS011;168;48.872;9.226;2023-06-22T11:26:22;9.10;;;6.57;;
359;SDS011;168;48.872;9.226;2023-06-22T11:28:50;9.23;;;6.27;;
359;SDS011;168;48.872;9.226;2023-06-22T11:31:17;7.37;;;6.53;;
359;SDS011;168;48.872;9.226;2023-06-22T11:33:45;8.53;;;5.87;;
359;SDS011;168;48.872;9.226;2023-06-22T11:36:15;12.40;;;6.67;;
359;SDS011;168;48.872;9.226;2023-06-22T11:38:44;7.70;;;6.40;;
359;SDS011;168;48.872;9.226;2023-06-22T11:41:12;8.73;;;6.70;;
359;SDS011;168;48.872;9.226;2023-06-22T11:43:41;10.83;;;7.50;;
359;SDS011;168;48.872;9.226;2023-06-22T11:46:08;7.47;;;6.30;;
359;SDS011;168;48.872;9.226;2023-06-22T11:48:37;7.63;;;6.03;;
359;SDS011;168;48.872;9.226;2023-06-22T11:51:04;7.73;;;6.10;;
359;SDS011;168;48.872;9.226;2023-06-22T11:53:34;8.30;;;6.00;;
359;SDS011;168;48.872;9.226;2023-06-22T11:56:01;7.70;;;6.20;;
359;SDS011;168;48.872;9.226;2023-06-22T11:58:28;7.23;;;6.30;;
359;SDS011;168;48.872;9.226;2023-06-22T12:00:56;6.37;;;5.70;;
359;SDS011;168;48.872;9.226;2023-06-22T12:03:23;6.83;;;6.20;;
359;SDS011;168;48.872;9.226;2023-06-22T12:05:51;8.10;;;6.73;;
359;SDS011;168;48.872;9.226;2023-06-22T12:08:18;7.50;;;5.70;;
359;SDS011;168;48.872;9.226;2023-06-22T12:10:47;8.10;;;6.10;;
359;SDS011;168;48.872;9.226;2023-06-22T12:13:15;8.93;;;5.73;;
359;SDS011;168;48.872;9.226;2023-06-22T12:15:43;6.23;;;5.67;;
359;SDS011;168;48.872;9.226;2023-06-22T12:18:10;6.90;;;5.80;;
359;SDS011;168;48.872;9.226;2023-06-22T12:20:40;6.60;;;6.00;;
359;SDS011;168;48.872;9.226;2023-06-22T12:23:07;10.80;;;6.40;;
359;SDS011;168;48.872;9.226;2023-06-22T12:25:34;6.93;;;6.20;;
359;SDS011;168;48.872;9.226;2023-06-22T12:28:06;9.53;;;6.20;;
359;SDS011;168;48.872;9.226;2023-06-22T12:30:34;8.87;;;6.90;;
359;SDS011;168;48.872;9.226;2023-06-22T12:33:01;7.43;;;5.93;;
359;SDS011;168;48.872;9.226;2023-06-22T12:35:28;7.20;;;6.47;;
359;SDS011;168;48.872;9.226;2023-06-22T12:37:56;8.20;;;6.30;;
359;SDS011;168;48.872;9.226;2023-06-22T12:40:24;10.43;;;7.73;;
359;SDS011;168;48.872;9.226;2023-06-22T12:42:52;8.57;;;7.67;;
359;SDS011;168;48.872;9.226;2023-06-22T12:45:26;7.93;;;6.93;;
359;SDS011;168;48.872;9.226;2023-06-22T12:47:57;10.80;;;7.20;;
359;SDS011;168;48.872;9.226;2023-06-22T12:50:25;9.10;;;7.20;;
359;SDS011;168;48.872;9.226;2023-06-22T12:52:53;9.40;;;7.00;;
359;SDS011;168;48.872;9.226;2023-06-22T12:55:20;8.13;;;6.33;;
359;SDS011;168;48.872;9.226;2023-06-22T12:57:49;7.10;;;6.40;;
359;SDS011;168;48.872;9.226;2023-06-22T13:00:17;7.60;;;6.40;;
359;SDS011;168;48.872;9.226;2023-06-22T13:02:46;9.20;;;6.13;;
359;SDS011;168;48.872;9.226;2023-06-22T13:05:14;10.00;;;7.60;;
359;SDS011;168;48.872;9.226;2023-06-22T13:07:41;10.00;;;6.70;;
359;SDS011;168;48.872;9.226;2023-06-22T13:10:08;10.57;;;7.30;;
359;SDS011;168;48.872;9.226;2023-06-22T13:12:36;9.30;;;7.30;;
359;SDS011;168;48.872;9.226;2023-06-22T13:15:04;12.70;;;7.87;;
359;SDS011;168;48.872;9.226;2023-06-22T13:17:32;9.13;;;7.43;;
359;SDS011;168;48.872;9.226;2023-06-22T13:20:01;7.60;;;6.67;;
359;SDS011;168;48.872;9.226;2023-06-22T13:22:30;9.67;;;8.47;;
359;SDS011;168;48.872;9.226;2023-06-22T13:24:59;8.67;;;7.30;;
359;SDS011;168;48.872;9.226;2023-06-22T13:27:27;14.10;;;8.17;;
359;SDS011;168;48.872;9.226;2023-06-22T13:29:55;11.37;;;8.53;;
359;SDS011;168;48.872;9.226;2023-06-22T13:32:23;9.00;;;7.60;;
359;SDS011;168;48.872;9.226;2023-06-22T13:38:22;9.73;;;7.20;;
359;SDS011;168;48.872;9.226;2023-06-22T13:41:27;11.43;;;7.40;;
359;SDS011;168;48.872;9.226;2023-06-22T13:43:57;13.73;;;7.90;;
359;SDS011;168;48.872;9.226;2023-06-22T13:46:31;10.07;;;7.30;;
359;SDS011;168;48.872;9.226;2023-06-22T13:48:58;10.13;;;7.17;;
359;SDS011;168;48.872;9.226;2023-06-22T13:54:16;8.67;;;6.87;;
359;SDS011;168;48.872;9.226;2023-06-22T13:56:43;11.33;;;6.90;;
359;SDS011;168;48.872;9.226;2023-06-22T13:59:23;10.17;;;6.70;;
359;SDS011;168;48.872;9.226;2023-06-22T14:01:52;7.30;;;6.03;;
359;SDS011;168;48.872;9.226;2023-06-22T14:04:19;7.73;;;6.83;;
359;SDS011;168;48.872;9.226;2023-06-22T14:06:47;11.33;;;7.40;;
359;SDS011;168;48.872;9.226;2023-06-22T14:09:23;9.10;;;7.17;;
359;SDS011;168;48.872;9.226;2023-06-22T14:11:50;8.53;;;6.93;;
359;SDS011;168;48.872;9.226;2023-06-22T14:14:18;10.17;;;6.63;;
359;SDS011;168;48.872;9.226;2023-06-22T14:16:45;8.13;;;6.67;;
359;SDS011;168;48.872;9.226;2023-06-22T14:19:16;9.70;;;7.20;;
359;SDS011;168;48.872;9.226;2023-06-22T14:21:44;11.33;;;7.57;;
359;SDS011;168;48.872;9.226;2023-06-22T14:24:12;9.60;;;6.83;;
359;SDS011;168;48.872;9.226;2023-06-22T14:26:40;10.70;;;7.23;;
359;SDS011;168;48.872;9.226;2023-06-22T14:29:08;10.83;;;7.10;;
359;SDS011;168;48.872;9.226;2023-06-22T14:31:35;11.07;;;8.00;;
359;SDS011;168;48.872;9.226;2023-06-22T14:34:03;13.30;;;9.93;;
359;SDS011;168;48.872;9.226;2023-06-22T14:36:31;14.50;;;7.63;;
359;SDS011;168;48.872;9.226;2023-06-22T14:38:59;28.73;;;18.57;;
359;SDS011;168;48.872;9.226;2023-06-22T14:41:26;10.73;;;7.70;;
359;SDS011;168;48.872;9.226;2023-06-22T14:43:55;17.87;;;13.60;;
359;SDS011;168;48.872;9.226;2023-06-22T14:46:22;9.67;;;8.10;;
359;SDS011;168;48.872;9.226;2023-06-22T14:48:49;9.00;;;6.83;;
359;SDS011;168;48.872;9.226;2023-06-22T14:51:19;10.00;;;6.70;;
359;SDS011;168;48.872;9.226;2023-06-22T14:53:47;12.50;;;7.30;;
359;SDS011;168;48.872;9.226;2023-06-22T14:56:14;8.03;;;6.40;;
359;SDS011;168;48.872;9.226;2023-06-22T14:58:42;11.83;;;6.30;;
359;SDS011;168;48.872;9.226;2023-06-22T15:01:12;14.37;;;9.23;;
359;SDS011;168;48.872;9.226;2023-06-22T15:03:40;13.40;;;7.37;;
359;SDS011;168;48.872;9.226;2023-06-22T15:06:07;8.77;;;5.73;;
359;SDS011;168;48.872;9.226;2023-06-22T15:08:36;10.73;;;6.10;;
359;SDS011;168;48.872;9.226;2023-06-22T15:11:04;9.77;;;5.23;;
359;SDS011;168;48.872;9.226;2023-06-22T15:13:31;9.87;;;4.70;;
359;SDS011;168;48.872;9.226;2023-06-22T15:15:59;12.73;;;4.43;;
359;SDS011;168;48.872;9.226;2023-06-22T15:18:29;11.27;;;4.13;;
359;SDS011;168;48.872;9.226;2023-06-22T15:20:59;6.10;;;3.90;;
359;SDS011;168;48.872;9.226;2023-06-22T15:23:30;8.33;;;4.63;;
359;SDS011;168;48.872;9.226;2023-06-22T15:25:58;7.53;;;3.60;;
359;SDS011;168;48.872;9.226;2023-06-22T15:28:29;8.23;;;4.03;;
359;SDS011;168;48.872;9.226;2023-06-22T15:31:09;8.10;;;4.27;;
359;SDS011;168;48.872;9.226;2023-06-22T15:33:38;8.40;;;4.20;;
359;SDS011;168;48.872;9.226;2023-06-22T15:36:15;8.30;;;4.10;;
359;SDS011;168;48.872;9.226;2023-06-22T15:38:44;10.50;;;4.20;;
359;SDS011;168;48.872;9.226;2023-06-22T15:41:12;10.60;;;4.00;;
359;SDS011;168;48.872;9.226;2023-06-22T15:43:40;7.77;;;3.97;;
359;SDS011;168;48.872;9.226;2023-06-22T15:46:07;8.57;;;4.20;;
359;SDS011;168;48.872;9.226;2023-06-22T15:48:34;10.77;;;4.40;;
359;SDS011;168;48.872;9.226;2023-06-22T15:51:03;7.83;;;4.27;;
359;SDS011;168;48.872;9.226;2023-06-22T15:53:31;9.20;;;4.73;;